createdAt,value
2022-12-31T00:00:18.459Z,65.74
2022-12-31T00:03:12.414Z,65.86
2022-12-31T00:05:46.732Z,65.83
2022-12-31T00:08:19.415Z,65.84
2022-12-31T00:10:52.137Z,65.94
2022-12-31T00:13:25.767Z,65.98
2022-12-31T00:16:12.300Z,65.99
2022-12-31T00:18:49.318Z,65.91
2022-12-31T00:21:23.549Z,66.02
2022-12-31T00:23:56.201Z,66.16
2022-12-31T00:26:31.175Z,66.22
2022-12-31T00:29:05.019Z,66.13
2022-12-31T00:31:40.310Z,66.02
2022-12-31T00:34:13.986Z,66.03
2022-12-31T00:36:47.703Z,66.01
2022-12-31T00:39:20.455Z,65.92
2022-12-31T00:41:52.555Z,65.88
2022-12-31T00:44:24.816Z,65.75
2022-12-31T00:46:59.034Z,65.75
2022-12-31T00:49:33.923Z,65.66
2022-12-31T00:52:08.315Z,65.28
2022-12-31T00:54:40.875Z,65.18
2022-12-31T00:57:14.108Z,65.55
2022-12-31T00:59:47.094Z,65.89
2022-12-31T01:02:21.217Z,66.02
2022-12-31T01:04:57.050Z,65.88
2022-12-31T01:07:29.331Z,66.07
2022-12-31T01:10:01.230Z,65.81
2022-12-31T01:12:37.026Z,65.23
2022-12-31T01:15:11.288Z,65.33
2022-12-31T01:17:44.966Z,65.74
2022-12-31T01:20:19.090Z,65.69
2022-12-31T01:22:52.290Z,65.76
2022-12-31T01:25:25.008Z,65.97
2022-12-31T01:27:56.973Z,66.21
2022-12-31T01:30:28.789Z,66.37
2022-12-31T01:33:03.128Z,66.31
2022-12-31T01:35:37.248Z,66.26
2022-12-31T01:38:12.013Z,66.00
2022-12-31T01:40:46.918Z,65.43
2022-12-31T01:43:20.812Z,65.16
2022-12-31T01:45:54.756Z,64.98
2022-12-31T01:48:28.550Z,64.98
2022-12-31T01:51:00.828Z,65.34
2022-12-31T01:53:40.927Z,65.58
2022-12-31T01:56:14.880Z,65.48
2022-12-31T01:58:50.982Z,65.62
2022-12-31T02:01:31.186Z,65.82
2022-12-31T02:04:09.457Z,65.75
2022-12-31T02:06:45.575Z,65.68
2022-12-31T02:09:19.577Z,65.85
2022-12-31T02:11:54.280Z,65.56
2022-12-31T02:14:30.084Z,65.80
2022-12-31T02:17:09.641Z,65.83
2022-12-31T02:20:09.592Z,65.73
2022-12-31T02:23:04.942Z,65.93
2022-12-31T02:25:54.430Z,65.55
2022-12-31T02:28:38.678Z,65.40
2022-12-31T02:31:16.808Z,65.39
2022-12-31T02:33:56.538Z,65.49
2022-12-31T02:36:31.294Z,65.66
2022-12-31T02:39:06.708Z,65.61
2022-12-31T02:41:52.635Z,65.73
2022-12-31T02:44:27.713Z,65.96
2022-12-31T02:47:12.561Z,66.28
2022-12-31T02:49:59.359Z,65.85
2022-12-31T02:52:39.120Z,65.90
2022-12-31T02:55:16.582Z,66.39
2022-12-31T02:57:52.462Z,66.64
2022-12-31T03:00:44.436Z,66.52
2022-12-31T03:03:18.679Z,66.60
2022-12-31T03:05:53.545Z,66.59
2022-12-31T03:08:29.358Z,66.54
2022-12-31T03:11:21.439Z,66.62
2022-12-31T03:13:53.407Z,66.52
2022-12-31T03:16:26.168Z,66.61
2022-12-31T03:19:19.128Z,66.42
2022-12-31T03:22:13.020Z,66.66
2022-12-31T03:25:06.621Z,66.77
2022-12-31T03:27:43.834Z,67.84
2022-12-31T03:30:18.985Z,68.34
2022-12-31T03:32:51.555Z,68.89
2022-12-31T03:35:25.307Z,68.98
2022-12-31T03:38:00.148Z,68.99
2022-12-31T03:40:41.672Z,69.35
2022-12-31T03:43:14.034Z,69.51
2022-12-31T03:45:47.821Z,69.59
2022-12-31T03:48:20.998Z,69.76
2022-12-31T03:50:59.544Z,69.56
2022-12-31T03:53:32.264Z,69.93
2022-12-31T03:56:07.300Z,69.73
2022-12-31T03:58:39.906Z,69.69
2022-12-31T04:01:17.561Z,69.83
2022-12-31T04:03:49.679Z,69.85
2022-12-31T04:06:22.443Z,69.79
2022-12-31T04:08:57.198Z,69.66
2022-12-31T04:11:30.066Z,69.54
2022-12-31T04:14:04.783Z,69.53
2022-12-31T04:16:39.987Z,69.60
2022-12-31T04:19:16.509Z,69.14
2022-12-31T04:21:50.526Z,69.12
2022-12-31T04:24:27.207Z,69.03
2022-12-31T04:27:07.013Z,68.79
2022-12-31T04:29:40.038Z,68.60
2022-12-31T04:32:15.469Z,68.44
2022-12-31T04:34:48.495Z,68.20
2022-12-31T04:37:22.277Z,68.01
2022-12-31T04:39:55.436Z,68.00
2022-12-31T04:42:30.707Z,67.87
2022-12-31T04:45:02.680Z,67.72
2022-12-31T04:47:35.636Z,67.58
2022-12-31T04:50:09.815Z,67.69
2022-12-31T04:52:44.715Z,67.46
2022-12-31T04:55:20.195Z,67.31
2022-12-31T04:57:53.703Z,67.12
2022-12-31T05:00:25.682Z,67.19
2022-12-31T05:02:57.609Z,67.09
2022-12-31T05:05:31.368Z,66.76
2022-12-31T05:08:05.528Z,66.62
2022-12-31T05:10:37.679Z,66.47
2022-12-31T05:13:10.528Z,66.46
2022-12-31T05:15:46.712Z,66.32
2022-12-31T05:18:20.186Z,66.20
2022-12-31T05:20:56.692Z,66.17
2022-12-31T05:23:32.535Z,65.95
2022-12-31T05:26:06.498Z,66.19
2022-12-31T05:28:40.570Z,65.99
2022-12-31T05:31:15.621Z,66.00
2022-12-31T05:33:50.659Z,65.93
2022-12-31T05:36:24.114Z,65.97
2022-12-31T05:38:56.934Z,66.04
2022-12-31T05:41:31.145Z,66.05
2022-12-31T05:44:05.734Z,66.20
2022-12-31T05:46:38.927Z,66.26
2022-12-31T05:49:11.913Z,66.33
2022-12-31T05:51:44.985Z,66.39
2022-12-31T05:54:18.974Z,66.38
2022-12-31T05:56:51.513Z,66.24
2022-12-31T05:59:24.798Z,66.17
2022-12-31T06:01:59.025Z,66.20
2022-12-31T06:04:35.121Z,66.07
2022-12-31T06:07:10.632Z,66.13
2022-12-31T06:09:43.567Z,66.15
2022-12-31T06:12:19.680Z,66.23
2022-12-31T06:14:52.226Z,66.08
2022-12-31T06:17:27.070Z,66.12
2022-12-31T06:20:04.841Z,66.36
2022-12-31T06:22:40.253Z,66.31
2022-12-31T06:25:15.956Z,66.11
2022-12-31T06:27:49.640Z,66.17
2022-12-31T06:30:23.684Z,66.26
2022-12-31T06:32:57.296Z,66.16
2022-12-31T06:35:30.851Z,66.18
2022-12-31T06:38:04.737Z,66.12
2022-12-31T06:40:40.470Z,65.84
2022-12-31T06:43:15.693Z,65.82
2022-12-31T06:45:50.799Z,65.88
2022-12-31T06:48:26.608Z,65.79
2022-12-31T06:51:13.401Z,65.71
2022-12-31T06:53:50.935Z,65.85
2022-12-31T06:56:33.140Z,66.00
2022-12-31T06:59:11.076Z,65.99
2022-12-31T07:01:53.545Z,65.91
2022-12-31T07:04:50.400Z,65.89
2022-12-31T07:07:30.362Z,65.72
2022-12-31T07:10:11.923Z,65.58
2022-12-31T07:12:57.731Z,65.61
2022-12-31T07:15:45.587Z,65.50
2022-12-31T07:18:25.929Z,65.31
2022-12-31T07:20:59.023Z,65.49
2022-12-31T07:23:33.750Z,65.36
2022-12-31T07:26:12.143Z,65.27
2022-12-31T07:28:57.678Z,65.17
2022-12-31T07:31:43.468Z,65.11
2022-12-31T07:34:23.677Z,64.98
2022-12-31T07:37:04.150Z,64.64
2022-12-31T07:39:45.325Z,64.53
2022-12-31T07:42:23.930Z,64.39
2022-12-31T07:45:05.375Z,64.29
2022-12-31T07:47:39.203Z,64.24
2022-12-31T07:50:18.321Z,64.28
2022-12-31T07:52:54.315Z,64.07
2022-12-31T07:55:28.897Z,64.07
2022-12-31T07:58:07.658Z,64.05
2022-12-31T08:00:41.521Z,64.18
2022-12-31T08:03:26.222Z,64.10
2022-12-31T08:06:10.302Z,64.03
2022-12-31T08:08:51.671Z,63.80
2022-12-31T08:11:29.992Z,63.71
2022-12-31T08:14:05.353Z,63.84
2022-12-31T08:16:39.604Z,63.78
2022-12-31T08:19:18.659Z,63.64
2022-12-31T08:21:59.910Z,63.61
2022-12-31T08:24:40.708Z,63.41
2022-12-31T08:27:22.360Z,63.38
2022-12-31T08:30:05.568Z,63.37
2022-12-31T08:32:45.085Z,63.28
2022-12-31T08:35:28.744Z,63.07
2022-12-31T08:38:09.257Z,63.09
2022-12-31T08:40:51.294Z,62.99
2022-12-31T08:43:38.856Z,62.58
2022-12-31T08:46:20.696Z,62.51
2022-12-31T08:48:55.047Z,62.35
2022-12-31T08:51:28.717Z,62.18
2022-12-31T08:54:04.100Z,62.12
2022-12-31T08:56:48.839Z,61.97
2022-12-31T08:59:37.038Z,61.45
2022-12-31T09:02:35.384Z,61.47
2022-12-31T09:05:20.421Z,61.28
2022-12-31T09:08:00.207Z,61.02
2022-12-31T09:10:37.998Z,60.94
2022-12-31T09:13:20.644Z,60.80
2022-12-31T09:15:58.719Z,60.91
2022-12-31T09:18:34.334Z,60.84
2022-12-31T09:21:09.080Z,60.71
2022-12-31T09:23:43.376Z,60.57
2022-12-31T09:26:31.290Z,60.69
2022-12-31T09:29:10.728Z,60.06
2022-12-31T09:31:48.357Z,59.88
2022-12-31T09:34:27.008Z,59.58
2022-12-31T09:37:06.960Z,59.49
2022-12-31T09:39:42.474Z,59.71
2022-12-31T09:42:57.262Z,59.75
2022-12-31T09:45:54.005Z,59.69
2022-12-31T09:48:57.311Z,59.59
2022-12-31T09:51:34.110Z,59.55
2022-12-31T09:54:44.216Z,59.70
2022-12-31T09:57:33.006Z,59.79
2022-12-31T10:00:11.056Z,59.85
2022-12-31T10:02:53.994Z,60.32
2022-12-31T10:05:41.372Z,60.33
2022-12-31T10:08:24.583Z,60.49
2022-12-31T10:11:03.412Z,60.20
2022-12-31T10:13:45.300Z,60.34
2022-12-31T10:16:38.102Z,60.47
2022-12-31T10:19:40.683Z,60.34
2022-12-31T10:22:36.100Z,60.51
2022-12-31T10:25:38.381Z,60.24
2022-12-31T10:28:26.001Z,60.50
2022-12-31T10:31:16.812Z,60.35
2022-12-31T10:34:02.301Z,60.09
2022-12-31T10:36:45.158Z,60.13
2022-12-31T10:39:28.625Z,59.97
2022-12-31T10:42:22.182Z,60.06
2022-12-31T10:45:38.492Z,59.94
2022-12-31T10:48:31.200Z,59.91
2022-12-31T10:51:19.285Z,59.93
2022-12-31T10:54:16.824Z,59.98
2022-12-31T10:57:16.460Z,59.54
2022-12-31T11:00:17.546Z,59.72
2022-12-31T11:03:29.225Z,59.79
2022-12-31T11:06:34.730Z,59.59
2022-12-31T11:09:37.905Z,59.16
2022-12-31T11:12:22.771Z,59.24
2022-12-31T11:15:14.712Z,58.90
2022-12-31T11:17:58.293Z,59.03
2022-12-31T11:21:07.532Z,58.49
2022-12-31T11:23:43.714Z,58.41
2022-12-31T11:26:25.984Z,58.34
2022-12-31T11:29:08.703Z,58.13
2022-12-31T11:31:58.545Z,58.34
2022-12-31T11:34:50.465Z,58.18
2022-12-31T11:37:32.863Z,58.01
2022-12-31T11:40:23.607Z,58.22
2022-12-31T11:43:00.229Z,58.26
2022-12-31T11:46:00.584Z,58.25
2022-12-31T11:48:36.120Z,57.94
2022-12-31T11:51:31.066Z,57.68
2022-12-31T11:54:34.520Z,57.77
2022-12-31T11:57:25.482Z,57.44
2022-12-31T12:00:06.047Z,57.39
2022-12-31T12:02:44.407Z,57.15
2022-12-31T12:05:22.449Z,57.22
2022-12-31T12:07:57.316Z,57.09
2022-12-31T12:10:36.536Z,56.96
2022-12-31T12:13:20.225Z,57.13
2022-12-31T12:15:54.651Z,56.63
2022-12-31T12:18:36.557Z,56.60
2022-12-31T12:21:13.194Z,56.69
2022-12-31T12:23:59.397Z,56.72
2022-12-31T12:26:37.671Z,56.24
2022-12-31T12:29:18.141Z,56.22
2022-12-31T12:32:03.105Z,56.16
2022-12-31T12:34:36.707Z,56.11
2022-12-31T12:37:18.068Z,56.14
2022-12-31T12:39:59.437Z,55.91
2022-12-31T12:42:36.642Z,55.97
2022-12-31T12:45:18.272Z,55.78
2022-12-31T12:47:52.764Z,55.93
2022-12-31T12:50:34.685Z,56.04
2022-12-31T12:53:15.859Z,55.90
2022-12-31T12:56:00.720Z,55.81
2022-12-31T12:58:47.568Z,56.02
2022-12-31T13:01:28.982Z,55.90
2022-12-31T13:04:34.444Z,55.71
2022-12-31T13:07:20.362Z,55.79
2022-12-31T13:10:05.925Z,55.88
2022-12-31T13:13:21.979Z,56.01
2022-12-31T13:15:49.268Z,55.74
2022-12-31T13:18:35.675Z,55.73
2022-12-31T13:21:18.424Z,55.99
2022-12-31T13:23:53.462Z,55.97
2022-12-31T13:26:29.096Z,55.97
2022-12-31T13:29:03.184Z,55.92
2022-12-31T13:31:44.228Z,56.07
2022-12-31T13:34:20.729Z,55.92
2022-12-31T13:36:57.473Z,56.00
2022-12-31T13:39:35.187Z,56.00
2022-12-31T13:42:12.984Z,55.97
2022-12-31T13:44:50.447Z,56.13
2022-12-31T13:47:32.185Z,56.08
2022-12-31T13:50:15.105Z,55.86
2022-12-31T13:52:53.157Z,55.92
2022-12-31T13:55:29.966Z,56.08
2022-12-31T13:58:10.551Z,56.20
2022-12-31T14:00:49.063Z,56.27
2022-12-31T14:03:27.130Z,56.39
2022-12-31T14:06:06.727Z,56.43
2022-12-31T14:08:43.615Z,56.45
2022-12-31T14:11:28.262Z,56.50
2022-12-31T14:14:13.580Z,56.53
2022-12-31T14:16:52.995Z,56.62
2022-12-31T14:19:41.034Z,56.69
2022-12-31T14:22:18.415Z,56.63
2022-12-31T14:24:54.901Z,56.74
2022-12-31T14:27:30.829Z,56.82
2022-12-31T14:30:06.532Z,56.74
2022-12-31T14:33:03.023Z,56.86
2022-12-31T14:35:49.432Z,56.91
2022-12-31T14:38:29.507Z,56.92
2022-12-31T14:41:13.754Z,56.97
2022-12-31T14:43:52.691Z,57.09
2022-12-31T14:46:32.893Z,57.13
2022-12-31T14:49:18.182Z,57.12
2022-12-31T14:51:54.202Z,57.17
2022-12-31T14:54:36.451Z,57.36
2022-12-31T14:57:25.417Z,57.31
2022-12-31T14:59:59.835Z,57.43
2022-12-31T15:02:35.832Z,57.43
2022-12-31T15:05:18.266Z,57.48
2022-12-31T15:07:58.802Z,57.51
2022-12-31T15:10:43.212Z,57.50
2022-12-31T15:13:26.522Z,57.56
2022-12-31T15:16:22.509Z,57.70
2022-12-31T15:19:21.067Z,57.68
2022-12-31T15:22:03.971Z,57.73
2022-12-31T15:24:36.727Z,57.80
2022-12-31T15:27:31.161Z,57.80
2022-12-31T15:30:08.152Z,57.80
2022-12-31T15:32:43.135Z,57.80
2022-12-31T15:35:31.273Z,57.76
2022-12-31T15:38:20.359Z,57.78
2022-12-31T15:40:55.366Z,57.81
2022-12-31T15:43:34.044Z,57.87
2022-12-31T15:46:16.921Z,57.82
2022-12-31T15:48:55.450Z,57.77
2022-12-31T15:51:33.842Z,57.88
2022-12-31T15:54:07.923Z,57.93
2022-12-31T15:56:47.516Z,57.86
2022-12-31T15:59:21.275Z,57.89
2022-12-31T16:01:55.352Z,57.97
2022-12-31T16:04:34.446Z,58.04
2022-12-31T16:07:08.343Z,58.12
2022-12-31T16:09:41.168Z,58.11
2022-12-31T16:12:23.079Z,58.23
2022-12-31T16:15:00.086Z,58.22
2022-12-31T16:17:34.466Z,58.25
2022-12-31T16:20:25.548Z,58.21
2022-12-31T16:23:00.124Z,58.28
2022-12-31T16:25:38.423Z,58.33
2022-12-31T16:28:16.157Z,58.17
2022-12-31T16:31:01.675Z,58.19
2022-12-31T16:33:35.701Z,58.14
2022-12-31T16:36:17.257Z,58.09
2022-12-31T16:38:49.925Z,57.98
2022-12-31T16:41:24.455Z,57.98
2022-12-31T16:43:59.149Z,57.85
2022-12-31T16:46:34.674Z,57.73
2022-12-31T16:49:14.290Z,57.62
2022-12-31T16:51:48.112Z,57.62
2022-12-31T16:54:30.758Z,57.66
2022-12-31T16:57:05.771Z,57.45
2022-12-31T16:59:43.397Z,57.42
2022-12-31T17:02:21.514Z,57.44
2022-12-31T17:04:56.281Z,57.39
2022-12-31T17:07:38.753Z,57.26
2022-12-31T17:10:22.952Z,57.19
2022-12-31T17:13:27.806Z,57.13
2022-12-31T17:15:51.931Z,57.14
2022-12-31T17:18:27.355Z,57.17
2022-12-31T17:21:09.443Z,57.03
2022-12-31T17:23:45.919Z,56.84
2022-12-31T17:26:26.465Z,56.89
2022-12-31T17:29:01.389Z,56.85
2022-12-31T17:31:37.796Z,56.73
2022-12-31T17:34:27.829Z,56.70
2022-12-31T17:37:26.815Z,56.63
2022-12-31T17:40:40.903Z,56.55
2022-12-31T17:42:58.862Z,56.59
2022-12-31T17:45:32.240Z,56.54
2022-12-31T17:48:08.699Z,56.45
2022-12-31T17:50:49.947Z,56.57
2022-12-31T17:53:24.012Z,56.54
2022-12-31T17:56:01.623Z,56.58
2022-12-31T17:58:36.826Z,56.56
2022-12-31T18:01:10.928Z,56.42
2022-12-31T18:03:45.356Z,56.46
2022-12-31T18:06:23.231Z,56.38
2022-12-31T18:08:59.316Z,56.46
2022-12-31T18:11:36.353Z,56.44
2022-12-31T18:14:11.796Z,56.52
2022-12-31T18:16:46.318Z,56.45
2022-12-31T18:19:54.305Z,56.47
2022-12-31T18:22:19.842Z,56.44
2022-12-31T18:24:55.308Z,56.48
2022-12-31T18:27:32.321Z,56.42
2022-12-31T18:30:08.540Z,56.44
2022-12-31T18:32:42.681Z,56.46
2022-12-31T18:36:07.177Z,56.39
2022-12-31T18:38:16.233Z,56.38
2022-12-31T18:40:55.321Z,56.45
2022-12-31T18:43:29.591Z,56.40
2022-12-31T18:46:03.272Z,56.44
2022-12-31T18:48:35.504Z,56.39
2022-12-31T18:51:09.104Z,56.39
2022-12-31T18:53:41.674Z,56.40
2022-12-31T18:56:17.218Z,56.33
2022-12-31T18:58:51.040Z,56.33
2022-12-31T19:01:30.751Z,56.32
2022-12-31T19:04:04.367Z,56.24
2022-12-31T19:06:39.183Z,56.30
2022-12-31T19:09:43.357Z,56.23
2022-12-31T19:12:13.179Z,56.05
2022-12-31T19:14:47.318Z,56.04
2022-12-31T19:17:22.738Z,56.02
2022-12-31T19:19:55.303Z,56.02
2022-12-31T19:22:29.956Z,56.10
2022-12-31T19:25:04.735Z,55.97
2022-12-31T19:27:37.775Z,55.99
2022-12-31T19:30:18.270Z,55.92
2022-12-31T19:32:55.400Z,55.90
2022-12-31T19:35:28.594Z,55.87
2022-12-31T19:45:22.551Z,55.70
2022-12-31T19:47:56.938Z,55.53
2022-12-31T19:50:36.989Z,55.57
2022-12-31T19:53:17.973Z,55.54
2022-12-31T19:55:53.304Z,55.52
2022-12-31T19:58:36.865Z,55.47
2022-12-31T20:01:10.297Z,55.39
2022-12-31T20:03:45.016Z,55.26
2022-12-31T20:06:19.465Z,55.23
2022-12-31T20:08:52.498Z,55.04
2022-12-31T20:11:26.741Z,55.12
2022-12-31T20:14:00.900Z,55.07
2022-12-31T20:16:34.927Z,55.10
2022-12-31T20:19:08.594Z,55.04
2022-12-31T20:21:43.348Z,55.03
2022-12-31T20:24:16.960Z,54.83
2022-12-31T20:26:49.139Z,54.71
2022-12-31T20:29:22.157Z,54.78
2022-12-31T20:31:58.712Z,54.61
2022-12-31T20:34:32.538Z,54.31
2022-12-31T20:37:05.589Z,54.38
2022-12-31T20:39:39.627Z,54.41
2022-12-31T20:42:12.418Z,54.46
2022-12-31T20:44:45.290Z,54.45
2022-12-31T20:47:20.880Z,54.47
2022-12-31T20:50:12.651Z,54.41
2022-12-31T20:52:46.780Z,54.49
2022-12-31T20:55:19.690Z,54.34
2022-12-31T20:57:57.117Z,54.38
2022-12-31T21:00:30.077Z,54.47
2022-12-31T21:03:14.283Z,54.09
2022-12-31T21:05:58.326Z,54.26
2022-12-31T21:08:35.066Z,54.34
2022-12-31T21:11:30.407Z,54.10
2022-12-31T21:14:05.954Z,54.03
2022-12-31T21:16:39.243Z,54.10
2022-12-31T21:19:16.399Z,54.12
2022-12-31T21:21:49.900Z,54.08
2022-12-31T21:24:24.187Z,54.04
2022-12-31T21:26:58.713Z,54.10
2022-12-31T21:29:34.937Z,54.01
2022-12-31T21:32:08.610Z,53.95
2022-12-31T21:34:43.259Z,53.95
2022-12-31T21:37:15.369Z,53.98
2022-12-31T21:39:49.891Z,53.94
2022-12-31T21:42:25.172Z,53.96
2022-12-31T21:44:58.258Z,53.96
2022-12-31T21:47:49.355Z,53.99
2022-12-31T21:50:23.080Z,54.09
2022-12-31T21:52:56.070Z,54.25
2022-12-31T21:55:49.437Z,54.27
2022-12-31T21:58:27.770Z,54.33
2022-12-31T22:01:34.256Z,54.53
2022-12-31T22:04:28.115Z,54.50
2022-12-31T22:07:00.723Z,54.63
2022-12-31T22:09:36.955Z,54.76
2022-12-31T22:12:10.392Z,54.82
2022-12-31T22:15:15.889Z,54.82
2022-12-31T22:17:37.427Z,54.86
2022-12-31T22:20:28.507Z,54.93
2022-12-31T22:23:05.298Z,54.98
2022-12-31T22:25:38.783Z,55.01
2022-12-31T22:28:37.543Z,55.00
2022-12-31T22:31:04.315Z,54.99
2022-12-31T22:33:37.458Z,55.08
2022-12-31T22:36:14.050Z,55.11
2022-12-31T22:38:47.131Z,55.11
2022-12-31T22:41:21.932Z,55.18
2022-12-31T22:44:02.695Z,55.27
2022-12-31T22:46:38.437Z,55.19
2022-12-31T22:49:13.247Z,55.28
2022-12-31T22:51:57.670Z,55.30
2022-12-31T22:54:33.145Z,55.35
2022-12-31T22:57:08.003Z,55.31
2022-12-31T22:59:41.652Z,55.26
2022-12-31T23:02:13.649Z,55.31
2022-12-31T23:04:50.233Z,55.34
2022-12-31T23:07:23.148Z,55.38
2022-12-31T23:10:13.793Z,55.32
2022-12-31T23:12:47.591Z,55.47
2022-12-31T23:15:39.397Z,55.51
2022-12-31T23:18:33.527Z,55.38
2022-12-31T23:21:30.418Z,55.33
2022-12-31T23:24:04.614Z,55.42
2022-12-31T23:26:38.183Z,55.47
2022-12-31T23:29:12.415Z,55.44
2022-12-31T23:31:49.166Z,55.44
2022-12-31T23:34:23.920Z,55.41
